Volente, Texas
Current Conditions -  °F | °C
As of 4:35 PM on Sunday 23 Nov 2014 (Local Time) from KRYW Reporting Station
Clear Clear  
Wind Chill: 25°   Ceiling: Unl
Heat Index: 25°   Visibility: 10mi
Dew Point:   Wind: 8mph
Humidity: 23%   Direction: 250°WSW
Pressure: 29.56"   Gusts: NA
Location:  30.558°N, 97.9247°W
Report Text: KRYW 232235Z AUTO 25007KT 10SM CLR 25/03 A2956 RMK AO2 T02520027
Loading
Personal Weather Stations






























Interactive Weather Map New forecast layout! Learn more

10-Day Weather Forecast

Advertisements
Track Severe Weather on mobile